Time;durP1;ratioP1;P1;durP2;ratioP2;P2;SDS_P1;SDS_P2;PMS_P1;PMS_P2;Temp;Humidity;BMP_temperature;BMP_pressure;BME280_temperature;BME280_humidity;BME280_pressure;Samples;Min_cycle;Max_cycle;Signal;HPM_P1;HPM_P2
2021/04/06 00:00:08;;;;;;;;;;;14.50;69.70;;;;;;5032352;28;19913;-58
2021/04/06 00:02:35;;;;;;;;;;;14.40;69.80;;;;;;5032546;28;20330;-58
2021/04/06 00:05:01;;;;;;;;;;;14.30;69.80;;;;;;5032207;28;19910;-59
2021/04/06 00:07:27;;;;;;;;;;;14.40;70.10;;;;;;5031972;28;19917;-57
2021/04/06 00:09:59;;;;;;;;;;;14.40;69.70;;;;;;5032440;28;19920;-58
2021/04/06 00:12:26;;;;;;;;;;;14.40;70.00;;;;;;5032215;28;19951;-58
2021/04/06 00:14:52;;;;;;;;;;;14.10;69.70;;;;;;5032234;28;19912;-58
2021/04/06 00:17:18;;;;;;;;;;;14.30;69.60;;;;;;5032539;28;19920;-60
2021/04/06 00:19:44;;;;;;;;;;;14.30;69.80;;;;;;5032309;28;19918;-59
2021/04/06 00:22:10;;;;;;;;;;;14.30;70.00;;;;;;5032504;28;19913;-58
2021/04/06 00:24:38;;;;;;;;;;;14.30;70.00;;;;;;5032265;28;20256;-59
2021/04/06 00:27:10;;;;;;;;;;;14.30;69.60;;;;;;5032241;28;19910;-59
2021/04/06 00:29:36;;;;;;;;;;;14.30;70.00;;;;;;5032216;28;20307;-58
2021/04/06 00:32:02;;;;;;;;;;;14.20;70.00;;;;;;5032309;28;20004;-58
2021/04/06 00:34:28;;;;;;;;;;;14.20;69.90;;;;;;5031989;28;20559;-59
2021/04/06 00:36:55;;;;;;;;;;;14.20;69.90;;;;;;5014449;28;19913;-57
2021/04/06 00:39:31;;;;;;;;;;;14.30;70.30;;;;;;5032221;28;20332;-58
2021/04/06 00:42:02;;;;;;;;;;;14.20;69.90;;;;;;5032417;28;19909;-58
2021/04/06 00:44:28;;;;;;;;;;;14.40;70.20;;;;;;5014474;28;20332;-59
2021/04/06 00:46:54;;;;;;;;;;;14.20;70.00;;;;;;5032098;28;19920;-57
2021/04/06 00:49:21;;;;;;;;;;;14.10;69.90;;;;;;5032138;28;19952;-57
2021/04/06 00:51:49;;;;;;;;;;;14.10;70.30;;;;;;5032106;28;19916;-58
2021/04/06 00:54:15;;;;;;;;;;;14.20;70.20;;;;;;5031926;28;19913;-58
2021/04/06 00:56:41;;;;;;;;;;;14.00;70.10;;;;;;5031820;28;19967;-58
2021/04/06 00:59:08;;;;;;;;;;;13.80;70.00;;;;;;5032252;28;19940;-58
2021/04/06 01:01:33;;;;;;;;;;;14.00;70.20;;;;;;5031927;28;19932;-58
2021/04/06 01:04:01;;;;;;;;;;;14.10;70.60;;;;;;5032018;28;20397;-57
2021/04/06 01:06:27;;;;;;;;;;;14.00;70.50;;;;;;5031856;28;20003;-58
2021/04/06 01:08:55;;;;;;;;;;;14.00;70.60;;;;;;5030952;28;19969;-58
2021/04/06 01:11:22;;;;;;;;;;;14.20;70.60;;;;;;5031806;28;19909;-58
2021/04/06 01:13:48;;;;;;;;;;;14.10;70.20;;;;;;5032093;28;19909;-58
2021/04/06 01:16:14;;;;;;;;;;;13.80;70.30;;;;;;5031629;28;19917;-58
2021/04/06 01:18:39;;;;;;;;;;;13.90;70.60;;;;;;5031689;28;20402;-58
2021/04/06 01:21:06;;;;;;;;;;;13.90;70.40;;;;;;5031875;28;19909;-58
2021/04/06 01:23:33;;;;;;;;;;;13.90;70.80;;;;;;5031912;28;19916;-58
2021/04/06 01:26:00;;;;;;;;;;;14.00;70.80;;;;;;5035040;28;20369;-56
2021/04/06 01:28:29;;;;;;;;;;;13.90;70.50;;;;;;5035208;28;19909;-58
2021/04/06 01:30:55;;;;;;;;;;;14.10;70.40;;;;;;5035477;28;19913;-57
2021/04/06 01:33:22;;;;;;;;;;;13.90;70.40;;;;;;5035146;28;19909;-57
2021/04/06 01:35:51;;;;;;;;;;;13.90;70.60;;;;;;5035084;28;19924;-57
2021/04/06 01:38:17;;;;;;;;;;;;;;;;;;5035332;28;20261;-58
2021/04/06 01:40:43;;;;;;;;;;;14.20;70.80;;;;;;5035139;28;19961;-57
2021/04/06 01:43:10;;;;;;;;;;;13.80;70.80;;;;;;5035051;28;19912;-57
2021/04/06 01:45:43;;;;;;;;;;;13.80;70.60;;;;;;5034972;28;19916;-58
2021/04/06 01:48:10;;;;;;;;;;;14.00;70.60;;;;;;5041635;28;20018;-58
2021/04/06 01:50:36;;;;;;;;;;;13.90;71.00;;;;;;5035136;28;19910;-57
2021/04/06 01:53:01;;;;;;;;;;;13.90;71.00;;;;;;5034855;28;19932;-57
2021/04/06 01:55:31;;;;;;;;;;;13.80;71.00;;;;;;5034811;28;19964;-58
2021/04/06 01:57:57;;;;;;;;;;;13.70;71.00;;;;;;5034949;28;20276;-58
2021/04/06 02:02:49;;;;;;;;;;;13.80;71.10;;;;;;5035050;28;19916;-58
2021/04/06 02:05:15;;;;;;;;;;;13.70;70.90;;;;;;5034745;28;20308;-57
2021/04/06 02:07:42;;;;;;;;;;;13.80;71.40;;;;;;5033903;28;20070;-57
2021/04/06 02:10:08;;;;;;;;;;;;;;;;;;5034388;28;19945;-58
2021/04/06 02:12:37;;;;;;;;;;;13.70;71.30;;;;;;5034621;28;20006;-57
2021/04/06 02:15:07;;;;;;;;;;;13.70;71.30;;;;;;5034511;28;19913;-58
2021/04/06 02:17:33;;;;;;;;;;;13.60;71.00;;;;;;5034428;28;19963;-58
2021/04/06 02:19:58;;;;;;;;;;;13.70;71.40;;;;;;5034248;28;19913;-58
2021/04/06 02:22:24;;;;;;;;;;;13.70;71.30;;;;;;5034500;28;19999;-57
2021/04/06 02:24:50;;;;;;;;;;;13.90;71.30;;;;;;5034188;28;20356;-57
2021/04/06 02:27:20;;;;;;;;;;;13.70;71.10;;;;;;5034397;28;19909;-56
2021/04/06 02:29:47;;;;;;;;;;;13.70;70.90;;;;;;5033999;28;19913;-57
2021/04/06 02:32:17;;;;;;;;;;;13.80;71.30;;;;;;5034191;28;19920;-58
2021/04/06 02:34:47;;;;;;;;;;;13.70;71.20;;;;;;5034141;28;20339;-57
2021/04/06 02:37:16;;;;;;;;;;;13.60;71.30;;;;;;5034022;28;19913;-57
2021/04/06 02:39:42;;;;;;;;;;;13.60;71.00;;;;;;5034036;28;19910;-58
2021/04/06 02:42:17;;;;;;;;;;;13.60;70.60;;;;;;5034017;28;19909;-57
2021/04/06 02:44:43;;;;;;;;;;;13.60;70.20;;;;;;5033745;28;19909;-57
2021/04/06 02:47:08;;;;;;;;;;;13.40;71.10;;;;;;5033817;28;19913;-58
2021/04/06 02:49:34;;;;;;;;;;;13.60;71.20;;;;;;5016065;28;20367;-58
2021/04/06 02:52:00;;;;;;;;;;;13.70;71.40;;;;;;5033504;28;19913;-58
2021/04/06 02:54:25;;;;;;;;;;;13.60;68.10;;;;;;5033702;28;20006;-58
2021/04/06 02:56:51;;;;;;;;;;;13.70;71.20;;;;;;5033857;28;20303;-56
2021/04/06 02:59:17;;;;;;;;;;;13.60;70.00;;;;;;5033489;28;20383;-58
2021/04/06 03:01:44;;;;;;;;;;;13.30;71.40;;;;;;5033401;28;19915;-58
2021/04/06 03:04:20;;;;;;;;;;;13.50;71.30;;;;;;5033185;28;19920;-57
2021/04/06 03:06:45;;;;;;;;;;;13.50;71.20;;;;;;5033700;28;19916;-58
2021/04/06 03:09:11;;;;;;;;;;;;;;;;;;5032594;28;19921;-58
2021/04/06 03:11:41;;;;;;;;;;;13.40;71.70;;;;;;5033345;28;19909;-58
2021/04/06 03:14:06;;;;;;;;;;;13.50;71.60;;;;;;5033285;28;19909;-58
2021/04/06 03:16:32;;;;;;;;;;;13.50;71.50;;;;;;5015182;28;19928;-57
2021/04/06 03:19:01;;;;;;;;;;;13.50;71.50;;;;;;5033193;28;19916;-57
2021/04/06 03:21:28;;;;;;;;;;;13.40;71.30;;;;;;5033024;28;20383;-58
2021/04/06 03:23:53;;;;;;;;;;;13.40;71.00;;;;;;5033267;28;19932;-57
2021/04/06 03:26:21;;;;;;;;;;;13.10;71.20;;;;;;5033195;28;20351;-57
2021/04/06 03:28:48;;;;;;;;;;;;;;;;;;5033190;28;19909;-57
2021/04/06 03:31:16;;;;;;;;;;;13.40;71.60;;;;;;5032873;28;19916;-58
2021/04/06 03:33:43;;;;;;;;;;;13.40;71.40;;;;;;5032913;28;19917;-57
2021/04/06 03:36:18;;;;;;;;;;;13.40;71.20;;;;;;5032782;28;20013;-58
2021/04/06 03:38:43;;;;;;;;;;;13.30;71.00;;;;;;5032868;28;19956;-57
2021/04/06 03:41:09;;;;;;;;;;;13.30;71.10;;;;;;5032894;28;19948;-57
2021/04/06 03:43:38;;;;;;;;;;;13.40;71.30;;;;;;5032648;28;19913;-57
2021/04/06 03:46:04;;;;;;;;;;;13.40;71.20;;;;;;5032771;28;20063;-57
2021/04/06 03:48:33;;;;;;;;;;;13.60;71.30;;;;;;5032188;28;19956;-58
2021/04/06 03:50:59;;;;;;;;;;;13.30;71.10;;;;;;5032920;28;20283;-57
2021/04/06 03:53:35;;;;;;;;;;;13.30;71.10;;;;;;5032620;28;19913;-57
2021/04/06 03:56:03;;;;;;;;;;;13.30;71.30;;;;;;5032480;28;20467;-58
2021/04/06 03:58:31;;;;;;;;;;;13.30;71.30;;;;;;5032794;28;19909;-57
2021/04/06 04:00:57;;;;;;;;;;;13.20;71.70;;;;;;5014768;28;19909;-57
2021/04/06 04:03:22;;;;;;;;;;;13.30;71.60;;;;;;5032450;28;19920;-58
2021/04/06 04:05:48;;;;;;;;;;;13.20;71.40;;;;;;5032471;28;19916;-58
2021/04/06 04:08:14;;;;;;;;;;;13.30;70.20;;;;;;5031703;28;20032;-57
2021/04/06 04:10:39;;;;;;;;;;;13.30;71.40;;;;;;5032670;28;19913;-57
2021/04/06 04:13:05;;;;;;;;;;;;;;;;;;5032624;28;19909;-56
2021/04/06 04:15:31;;;;;;;;;;;13.20;71.80;;;;;;5032287;28;19917;-58
2021/04/06 04:17:56;;;;;;;;;;;13.20;71.70;;;;;;5032800;28;20003;-58
2021/04/06 04:20:23;;;;;;;;;;;13.20;71.80;;;;;;5032607;28;19914;-57
2021/04/06 04:22:49;;;;;;;;;;;13.30;71.90;;;;;;5032527;28;19909;-58
2021/04/06 04:25:16;;;;;;;;;;;13.20;71.80;;;;;;5032750;28;19913;-57
2021/04/06 04:27:42;;;;;;;;;;;13.20;71.80;;;;;;5032687;28;19909;-57
2021/04/06 04:30:08;;;;;;;;;;;13.20;71.80;;;;;;5032412;28;19935;-57
2021/04/06 04:32:34;;;;;;;;;;;13.20;71.70;;;;;;5014580;28;19925;-57
2021/04/06 04:35:00;;;;;;;;;;;13.20;71.60;;;;;;5032299;28;20344;-57
2021/04/06 04:37:25;;;;;;;;;;;13.20;71.60;;;;;;5032435;28;19909;-55
2021/04/06 04:39:51;;;;;;;;;;;13.40;72.00;;;;;;5032405;28;19916;-57
2021/04/06 04:42:16;;;;;;;;;;;13.20;71.90;;;;;;5032334;28;19916;-58
2021/04/06 04:44:41;;;;;;;;;;;13.20;72.20;;;;;;5031938;28;19954;-57
2021/04/06 04:47:07;;;;;;;;;;;13.20;72.10;;;;;;5032006;28;20443;-57
2021/04/06 04:49:32;;;;;;;;;;;13.30;72.30;;;;;;5031974;28;19917;-57
2021/04/06 04:51:58;;;;;;;;;;;13.10;71.80;;;;;;5031854;28;19909;-58
2021/04/06 04:54:23;;;;;;;;;;;13.10;72.10;;;;;;5031887;28;20003;-57
2021/04/06 04:56:49;;;;;;;;;;;13.30;72.10;;;;;;5031843;28;19917;-57
2021/04/06 04:59:21;;;;;;;;;;;13.10;72.10;;;;;;5032405;28;19920;-57
2021/04/06 05:01:47;;;;;;;;;;;12.90;72.30;;;;;;5035870;28;19936;-57
2021/04/06 05:04:12;;;;;;;;;;;13.10;72.20;;;;;;5035746;28;19913;-57
2021/04/06 05:06:38;;;;;;;;;;;13.30;72.90;;;;;;5036028;28;20383;-57
2021/04/06 05:09:04;;;;;;;;;;;13.10;72.60;;;;;;5034736;28;19921;-58
2021/04/06 05:11:29;;;;;;;;;;;13.20;72.70;;;;;;5035853;28;19916;-56
2021/04/06 05:13:55;;;;;;;;;;;13.30;72.70;;;;;;5035915;28;20039;-57
2021/04/06 05:16:24;;;;;;;;;;;13.30;72.60;;;;;;5035676;28;19971;-56
2021/04/06 05:18:49;;;;;;;;;;;13.40;72.50;;;;;;5035251;28;19909;-57
2021/04/06 05:21:15;;;;;;;;;;;13.50;72.40;;;;;;5035491;28;19909;-57
2021/04/06 05:23:41;;;;;;;;;;;13.60;72.50;;;;;;5035547;28;19910;-57
2021/04/06 05:26:07;;;;;;;;;;;13.70;72.30;;;;;;5035482;28;19909;-56
2021/04/06 05:28:33;;;;;;;;;;;14.00;72.20;;;;;;5035504;28;19980;-58
2021/04/06 05:30:58;;;;;;;;;;;13.90;71.80;;;;;;5035503;28;19955;-57
2021/04/06 05:33:24;;;;;;;;;;;13.90;71.60;;;;;;5035101;28;20391;-57
2021/04/06 05:35:52;;;;;;;;;;;13.90;71.80;;;;;;5035361;28;19927;-56
2021/04/06 05:38:18;;;;;;;;;;;;;;;;;;5017147;28;20032;-56
2021/04/06 05:40:44;;;;;;;;;;;14.20;71.60;;;;;;5035024;28;19956;-57
2021/04/06 05:43:13;;;;;;;;;;;14.10;71.40;;;;;;5035296;28;19913;-56
2021/04/06 05:45:39;;;;;;;;;;;14.20;71.40;;;;;;5035407;28;19913;-57
2021/04/06 05:48:05;;;;;;;;;;;14.20;71.00;;;;;;5035083;28;19916;-57
2021/04/06 05:50:30;;;;;;;;;;;14.30;71.10;;;;;;5035066;28;19913;-56
2021/04/06 05:52:56;;;;;;;;;;;14.30;71.10;;;;;;5033915;28;19999;-57
2021/04/06 05:55:21;;;;;;;;;;;14.30;71.10;;;;;;5034698;28;19924;-57
2021/04/06 05:57:47;;;;;;;;;;;14.30;71.00;;;;;;5034907;28;19909;-57
2021/04/06 06:00:13;;;;;;;;;;;14.30;71.60;;;;;;5034632;28;19913;-57
2021/04/06 06:02:38;;;;;;;;;;;14.40;71.40;;;;;;5034776;28;19909;-56
2021/04/06 06:05:05;;;;;;;;;;;14.40;71.70;;;;;;5034512;28;19915;-58
2021/04/06 06:07:31;;;;;;;;;;;14.40;71.10;;;;;;5016444;28;20012;-57
2021/04/06 06:09:56;;;;;;;;;;;14.40;70.90;;;;;;5033070;28;20405;-55
2021/04/06 06:12:22;;;;;;;;;;;14.30;71.10;;;;;;5034720;28;19913;-56
2021/04/06 06:14:50;;;;;;;;;;;14.40;71.00;;;;;;5034344;28;19935;-56
2021/04/06 06:17:16;;;;;;;;;;;14.30;70.70;;;;;;5034671;28;19913;-54
2021/04/06 06:19:42;;;;;;;;;;;14.40;70.60;;;;;;5034241;28;19913;-56
2021/04/06 06:22:09;;;;;;;;;;;14.40;71.00;;;;;;5034533;28;19943;-57
2021/04/06 06:24:35;;;;;;;;;;;14.30;71.60;;;;;;5034569;28;20012;-57
2021/04/06 06:27:01;;;;;;;;;;;14.20;71.70;;;;;;5034123;28;19988;-57
2021/04/06 06:29:29;;;;;;;;;;;14.20;71.40;;;;;;5034482;28;19963;-57
2021/04/06 06:31:58;;;;;;;;;;;14.20;71.60;;;;;;5034245;28;19920;-57
2021/04/06 06:34:38;;;;;;;;;;;14.10;71.60;;;;;;5034358;28;19909;-56
2021/04/06 06:37:04;;;;;;;;;;;14.20;71.80;;;;;;5033750;28;19921;-57
2021/04/06 06:39:30;;;;;;;;;;;15.00;72.70;;;;;;5034165;28;19919;-56
2021/04/06 06:41:59;;;;;;;;;;;14.90;72.50;;;;;;5034267;28;19909;-56
2021/04/06 06:44:25;;;;;;;;;;;14.30;71.40;;;;;;5034109;28;19913;-56
2021/04/06 06:47:01;;;;;;;;;;;14.40;71.60;;;;;;5033947;28;19916;-57
2021/04/06 06:49:35;;;;;;;;;;;14.50;71.40;;;;;;5034248;28;19909;-57
2021/04/06 06:52:00;;;;;;;;;;;14.30;71.10;;;;;;5034147;28;19913;-56
2021/04/06 06:54:38;;;;;;;;;;;14.40;70.90;;;;;;5033952;28;19909;-57
2021/04/06 06:57:08;;;;;;;;;;;14.60;65.00;;;;;;5016208;28;19913;-57
2021/04/06 06:59:34;;;;;;;;;;;;;;;;;;5033890;28;19909;-57
2021/04/06 07:02:19;;;;;;;;;;;14.60;70.80;;;;;;5033742;28;20481;-58
2021/04/06 07:04:44;;;;;;;;;;;14.60;70.70;;;;;;5033874;28;20322;-57
2021/04/06 07:07:10;;;;;;;;;;;14.60;70.90;;;;;;5033478;28;19920;-57
2021/04/06 07:09:36;;;;;;;;;;;14.60;70.50;;;;;;5032041;28;19921;-57
2021/04/06 07:12:03;;;;;;;;;;;15.20;71.40;;;;;;5015327;28;20126;-55
2021/04/06 07:14:30;;;;;;;;;;;14.70;70.70;;;;;;5033481;28;19909;-58
2021/04/06 07:16:57;;;;;;;;;;;15.20;71.40;;;;;;5033385;28;20383;-57
2021/04/06 07:19:32;;;;;;;;;;;14.70;70.50;;;;;;5032552;28;21345;-57
2021/04/06 07:22:00;;;;;;;;;;;14.70;70.50;;;;;;5032369;28;19909;-57
2021/04/06 07:24:27;;;;;;;;;;;15.50;71.40;;;;;;5033205;28;19920;-57
2021/04/06 07:26:53;;;;;;;;;;;14.70;70.20;;;;;;5033343;28;19913;-57
2021/04/06 07:29:19;;;;;;;;;;;14.70;70.30;;;;;;5033157;28;20007;-58
2021/04/06 07:31:44;;;;;;;;;;;14.80;70.30;;;;;;5033060;28;19909;-57
2021/04/06 07:34:10;;;;;;;;;;;14.80;70.00;;;;;;5033048;28;19975;-56
2021/04/06 07:36:36;;;;;;;;;;;14.80;69.90;;;;;;5033127;28;19952;-57
2021/04/06 07:39:09;;;;;;;;;;;14.80;69.80;;;;;;5033073;28;20339;-57
2021/04/06 07:41:39;;;;;;;;;;;15.50;70.30;;;;;;5032967;28;19910;-57
2021/04/06 07:44:05;;;;;;;;;;;14.90;69.70;;;;;;5032749;28;19909;-57
2021/04/06 07:46:34;;;;;;;;;;;14.90;69.80;;;;;;5032843;28;20322;-57
2021/04/06 07:49:10;;;;;;;;;;;14.80;69.80;;;;;;5032982;28;19909;-57
2021/04/06 07:51:40;;;;;;;;;;;14.50;69.60;;;;;;5032563;28;19920;-57
2021/04/06 07:54:07;;;;;;;;;;;15.10;64.20;;;;;;5032878;28;19913;-57
2021/04/06 07:56:45;;;;;;;;;;;14.90;69.40;;;;;;5032406;28;20011;-57
2021/04/06 07:59:20;;;;;;;;;;;15.10;69.50;;;;;;5032816;28;19920;-57
2021/04/06 08:01:47;;;;;;;;;;;15.10;69.50;;;;;;5032501;28;19920;-57
2021/04/06 08:04:12;;;;;;;;;;;15.10;68.80;;;;;;5032757;28;19920;-57
2021/04/06 08:06:47;;;;;;;;;;;15.00;68.70;;;;;;5032839;28;20303;-54
2021/04/06 08:09:49;;;;;;;;;;;14.90;69.00;;;;;;5031960;28;19925;-57
2021/04/06 08:12:15;;;;;;;;;;;15.00;69.10;;;;;;5032387;28;19913;-57
2021/04/06 08:14:44;;;;;;;;;;;15.00;69.60;;;;;;5032335;28;20411;-57
2021/04/06 08:19:51;;;;;;;;;;;14.80;63.50;;;;;;5032706;28;20322;-57
2021/04/06 08:22:17;;;;;;;;;;;15.90;70.10;;;;;;5032381;28;19909;-57
2021/04/06 08:24:42;;;;;;;;;;;15.00;69.50;;;;;;5032582;28;19913;-57
2021/04/06 08:27:27;;;;;;;;;;;14.70;69.10;;;;;;5032607;28;19956;-56
2021/04/06 08:30:12;;;;;;;;;;;14.80;63.30;;;;;;5032188;28;20276;-56
2021/04/06 08:32:38;;;;;;;;;;;15.30;70.20;;;;;;5032127;28;19963;-57
2021/04/06 08:35:03;;;;;;;;;;;15.70;69.80;;;;;;5036059;28;20497;-57
2021/04/06 08:37:35;;;;;;;;;;;14.80;67.80;;;;;;5036535;28;19909;-56
2021/04/06 08:40:02;;;;;;;;;;;14.80;63.40;;;;;;5036520;28;20321;-57
2021/04/06 08:42:28;;;;;;;;;;;14.70;70.00;;;;;;5036240;28;19959;-57
2021/04/06 08:44:54;;;;;;;;;;;15.10;70.10;;;;;;5036210;28;19909;-57
2021/04/06 08:47:37;;;;;;;;;;;14.50;69.50;;;;;;5036038;28;20394;-56
2021/04/06 08:50:03;;;;;;;;;;;14.60;63.60;;;;;;5036095;28;20012;-57
2021/04/06 08:52:29;;;;;;;;;;;14.60;69.20;;;;;;5035936;28;19913;-57
2021/04/06 08:55:04;;;;;;;;;;;15.20;69.80;;;;;;5035856;28;19920;-57
2021/04/06 08:57:29;;;;;;;;;;;15.50;70.00;;;;;;5036182;28;19913;-56
2021/04/06 08:59:55;;;;;;;;;;;14.90;68.60;;;;;;5035830;28;20252;-58
2021/04/06 09:02:21;;;;;;;;;;;14.80;68.70;;;;;;5036081;28;19913;-57
2021/04/06 09:04:47;;;;;;;;;;;16.50;70.00;;;;;;5035811;28;19909;-57
2021/04/06 09:07:16;;;;;;;;;;;15.30;68.50;;;;;;5035695;28;19909;-56
2021/04/06 09:09:50;;;;;;;;;;;15.30;68.10;;;;;;5034937;28;20302;-57
2021/04/06 09:12:15;;;;;;;;;;;15.20;67.90;;;;;;5031803;28;19917;-57
2021/04/06 09:14:41;;;;;;;;;;;15.50;68.20;;;;;;5035560;28;20390;-57
2021/04/06 09:17:06;;;;;;;;;;;15.30;67.40;;;;;;5035860;28;20369;-57
2021/04/06 09:19:33;;;;;;;;;;;15.50;68.00;;;;;;5035604;28;19913;-57
2021/04/06 09:21:59;;;;;;;;;;;15.40;68.10;;;;;;5035496;28;19915;-57
2021/04/06 09:24:25;;;;;;;;;;;;;;;;;;5035724;28;19917;-57
2021/04/06 09:26:52;;;;;;;;;;;15.40;67.70;;;;;;5035774;28;19913;-56
2021/04/06 09:29:19;;;;;;;;;;;16.90;69.10;;;;;;5035458;28;19995;-55
2021/04/06 09:31:46;;;;;;;;;;;15.20;68.10;;;;;;5035526;28;19918;-57
2021/04/06 09:34:14;;;;;;;;;;;15.20;67.80;;;;;;5035289;28;19931;-55
2021/04/06 09:36:41;;;;;;;;;;;15.10;68.10;;;;;;5035061;28;19965;-56
2021/04/06 09:39:08;;;;;;;;;;;15.00;68.10;;;;;;5035331;28;19909;-57
2021/04/06 09:41:37;;;;;;;;;;;15.00;68.30;;;;;;5035109;28;19971;-57
2021/04/06 09:44:04;;;;;;;;;;;16.70;69.90;;;;;;5035349;28;19913;-57
2021/04/06 09:46:33;;;;;;;;;;;15.00;68.50;;;;;;5034356;28;19909;-55
2021/04/06 09:48:59;;;;;;;;;;;14.80;62.80;;;;;;5017240;28;19909;-56
2021/04/06 09:51:24;;;;;;;;;;;14.90;68.20;;;;;;5017155;28;19916;-56
2021/04/06 09:53:50;;;;;;;;;;;15.50;68.70;;;;;;5034861;28;20303;-56
2021/04/06 09:56:16;;;;;;;;;;;15.20;68.70;;;;;;5035016;28;20422;-56
2021/04/06 09:58:41;;;;;;;;;;;15.30;68.60;;;;;;5017130;28;19913;-56
2021/04/06 10:01:17;;;;;;;;;;;14.90;69.00;;;;;;5034947;28;20356;-57
2021/04/06 10:03:45;;;;;;;;;;;15.00;62.60;;;;;;5034723;28;19909;-56
2021/04/06 10:06:12;;;;;;;;;;;16.30;70.00;;;;;;5034855;28;20341;-56
2021/04/06 10:08:38;;;;;;;;;;;15.00;68.20;;;;;;5034008;28;19920;-56
2021/04/06 10:11:03;;;;;;;;;;;15.00;68.20;;;;;;5034749;28;19909;-57
2021/04/06 10:13:30;;;;;;;;;;;15.10;68.40;;;;;;5034701;28;19909;-56
2021/04/06 10:16:05;;;;;;;;;;;15.20;68.20;;;;;;5034714;28;19969;-56
2021/04/06 10:18:36;;;;;;;;;;;14.80;68.00;;;;;;5034762;28;20272;-57
2021/04/06 10:21:01;;;;;;;;;;;16.00;69.20;;;;;;5034518;28;19945;-57
2021/04/06 10:23:31;;;;;;;;;;;15.30;68.40;;;;;;5034531;28;19963;-56
2021/04/06 10:25:57;;;;;;;;;;;15.20;68.00;;;;;;5034278;28;19916;-57
2021/04/06 10:28:23;;;;;;;;;;;15.20;68.00;;;;;;5034572;28;19913;-56
2021/04/06 10:30:50;;;;;;;;;;;15.60;68.70;;;;;;5034501;28;19916;-57
2021/04/06 10:33:20;;;;;;;;;;;16.30;69.30;;;;;;5034075;28;20398;-57
2021/04/06 10:35:47;;;;;;;;;;;15.10;62.50;;;;;;5034085;28;20015;-56
2021/04/06 10:38:34;;;;;;;;;;;15.10;68.80;;;;;;5016176;28;19913;-56
2021/04/06 10:41:00;;;;;;;;;;;15.00;68.50;;;;;;5034251;28;20391;-56
2021/04/06 10:43:25;;;;;;;;;;;16.30;69.80;;;;;;5033961;28;19920;-56
2021/04/06 10:45:57;;;;;;;;;;;16.50;69.40;;;;;;5033701;28;19913;-57
2021/04/06 10:48:25;;;;;;;;;;;15.00;68.30;;;;;;5033669;28;20390;-55
2021/04/06 10:50:58;;;;;;;;;;;14.80;68.60;;;;;;5033685;28;19955;-55
2021/04/06 10:53:31;;;;;;;;;;;14.80;63.10;;;;;;5034067;28;19909;-56
2021/04/06 10:56:13;;;;;;;;;;;14.80;62.80;;;;;;5033754;28;19974;-56
2021/04/06 10:58:42;;;;;;;;;;;14.80;62.80;;;;;;5033661;28;19909;-55
2021/04/06 11:01:10;;;;;;;;;;;14.70;68.30;;;;;;5033551;28;19956;-56
2021/04/06 11:03:37;;;;;;;;;;;15.00;69.60;;;;;;5033447;28;19968;-53
2021/04/06 11:06:32;;;;;;;;;;;15.80;69.90;;;;;;5033734;28;19913;-56
2021/04/06 11:08:59;;;;;;;;;;;14.70;63.00;;;;;;5019466;28;19929;-56
2021/04/06 11:11:27;;;;;;;;;;;15.40;69.80;;;;;;5033796;28;19909;-54
2021/04/06 11:13:54;;;;;;;;;;;14.80;63.20;;;;;;5033363;28;19935;-56
2021/04/06 11:16:20;;;;;;;;;;;14.80;68.50;;;;;;5033485;28;19917;-55
2021/04/06 11:18:56;;;;;;;;;;;15.40;69.20;;;;;;5033352;28;19913;-55
2021/04/06 11:21:21;;;;;;;;;;;14.80;68.50;;;;;;5033376;28;19916;-56
2021/04/06 11:23:47;;;;;;;;;;;15.20;69.00;;;;;;5033536;28;20393;-56
2021/04/06 11:26:14;;;;;;;;;;;15.30;69.30;;;;;;5033429;28;19960;-56
2021/04/06 11:28:39;;;;;;;;;;;14.90;69.10;;;;;;5033438;28;19909;-56
2021/04/06 11:31:06;;;;;;;;;;;15.30;69.40;;;;;;5033013;28;19919;-56
2021/04/06 11:33:31;;;;;;;;;;;15.00;69.30;;;;;;5033121;28;20011;-56
2021/04/06 11:35:57;;;;;;;;;;;15.20;69.10;;;;;;5032907;28;20353;-56
2021/04/06 11:38:22;;;;;;;;;;;15.40;69.60;;;;;;5033193;28;19913;-56
2021/04/06 11:40:48;;;;;;;;;;;16.20;70.00;;;;;;5033216;28;20275;-56
2021/04/06 11:43:13;;;;;;;;;;;14.20;69.10;;;;;;5033146;28;19909;-56
2021/04/06 11:45:39;;;;;;;;;;;14.90;69.20;;;;;;5033107;28;20003;-55
2021/04/06 11:48:04;;;;;;;;;;;14.80;68.20;;;;;;5015100;28;19910;-56
2021/04/06 11:50:30;;;;;;;;;;;14.80;66.60;;;;;;5032717;28;19909;-56
2021/04/06 11:52:56;;;;;;;;;;;15.30;69.10;;;;;;5032857;28;19913;-55
2021/04/06 11:55:21;;;;;;;;;;;15.50;69.00;;;;;;5032878;28;19916;-56
2021/04/06 11:57:46;;;;;;;;;;;15.50;68.90;;;;;;5032871;28;19959;-56
2021/04/06 12:00:13;;;;;;;;;;;15.00;68.30;;;;;;5032870;28;20267;-56
2021/04/06 12:02:38;;;;;;;;;;;15.00;67.30;;;;;;5032843;28;19940;-56
2021/04/06 12:05:04;;;;;;;;;;;16.10;69.70;;;;;;5032825;28;19917;-55
2021/04/06 12:07:30;;;;;;;;;;;14.90;67.00;;;;;;5032435;28;19909;-55
2021/04/06 12:09:55;;;;;;;;;;;15.00;68.20;;;;;;5031455;28;20002;-56
2021/04/06 12:12:21;;;;;;;;;;;16.10;69.00;;;;;;5032497;28;19913;-55
2021/04/06 12:14:48;;;;;;;;;;;15.90;68.80;;;;;;5032448;28;19909;-57
2021/04/06 12:17:14;;;;;;;;;;;16.40;68.60;;;;;;5032614;28;20228;-56
2021/04/06 12:19:40;;;;;;;;;;;15.80;67.90;;;;;;5032385;28;20411;-56
2021/04/06 12:22:05;;;;;;;;;;;16.00;68.10;;;;;;5032408;28;19944;-56
2021/04/06 12:24:31;;;;;;;;;;;16.10;68.00;;;;;;5032485;28;19920;-56
2021/04/06 12:26:56;;;;;;;;;;;15.60;67.40;;;;;;5032607;28;19963;-56
2021/04/06 12:29:22;;;;;;;;;;;17.20;68.10;;;;;;5032327;28;20299;-55
2021/04/06 12:31:47;;;;;;;;;;;15.70;67.20;;;;;;5032655;28;19916;-56
2021/04/06 12:34:13;;;;;;;;;;;17.40;67.80;;;;;;5032425;28;19912;-56
2021/04/06 12:36:38;;;;;;;;;;;16.90;67.40;;;;;;5032552;28;19925;-56
2021/04/06 12:39:04;;;;;;;;;;;16.60;67.10;;;;;;5032586;28;19909;-55
2021/04/06 12:41:30;;;;;;;;;;;16.20;66.40;;;;;;5032332;28;19999;-56
2021/04/06 12:43:55;;;;;;;;;;;15.90;66.20;;;;;;5032304;28;19971;-56
2021/04/06 12:46:21;;;;;;;;;;;17.40;66.80;;;;;;5032408;28;20275;-54
2021/04/06 12:48:46;;;;;;;;;;;16.00;66.10;;;;;;5032678;28;20008;-56
2021/04/06 12:51:12;;;;;;;;;;;17.70;67.30;;;;;;5032588;28;19995;-55
2021/04/06 12:53:37;;;;;;;;;;;16.10;65.80;;;;;;5032275;28;19909;-56
2021/04/06 12:56:03;;;;;;;;;;;17.80;66.90;;;;;;5014760;28;20312;-55
2021/04/06 12:58:28;;;;;;;;;;;16.20;64.90;;;;;;5032183;28;20485;-56
2021/04/06 13:00:54;;;;;;;;;;;16.30;66.00;;;;;;5032097;28;20397;-55
2021/04/06 13:03:19;;;;;;;;;;;16.40;66.40;;;;;;5032428;28;19909;-56
2021/04/06 13:05:45;;;;;;;;;;;17.60;66.90;;;;;;5032003;28;20016;-56
2021/04/06 13:08:11;;;;;;;;;;;15.80;64.60;;;;;;5032366;28;19913;-56
2021/04/06 13:10:40;;;;;;;;;;;16.50;65.70;;;;;;5031388;28;19964;-56
2021/04/06 13:13:06;;;;;;;;;;;16.50;59.80;;;;;;5032112;28;19910;-57
2021/04/06 13:15:32;;;;;;;;;;;17.00;66.10;;;;;;5031837;28;20595;-55
2021/04/06 13:17:58;;;;;;;;;;;16.40;65.90;;;;;;5031770;28;19909;-55
2021/04/06 13:20:24;;;;;;;;;;;17.80;66.70;;;;;;5033081;28;20508;-56
2021/04/06 13:22:49;;;;;;;;;;;17.50;66.80;;;;;;5035857;28;20279;-54
2021/04/06 13:25:15;;;;;;;;;;;16.70;66.30;;;;;;5035633;28;19909;-56
2021/04/06 13:27:40;;;;;;;;;;;16.70;65.60;;;;;;5035757;28;19948;-56
2021/04/06 13:30:07;;;;;;;;;;;16.70;66.10;;;;;;5035448;28;19913;-54
2021/04/06 13:32:33;;;;;;;;;;;16.80;64.90;;;;;;5017551;28;20276;-56
2021/04/06 13:34:58;;;;;;;;;;;17.50;66.40;;;;;;5035175;28;19909;-55
2021/04/06 13:37:24;;;;;;;;;;;16.80;66.30;;;;;;5035295;28;20356;-56
2021/04/06 13:39:49;;;;;;;;;;;16.80;66.60;;;;;;5035126;28;20384;-56
2021/04/06 13:42:15;;;;;;;;;;;16.70;66.20;;;;;;5035426;28;19909;-56
2021/04/06 13:44:40;;;;;;;;;;;16.90;65.90;;;;;;5035313;28;19910;-56
2021/04/06 13:47:06;;;;;;;;;;;17.60;66.60;;;;;;5035097;28;20261;-56
2021/04/06 13:49:31;;;;;;;;;;;17.70;66.10;;;;;;5034940;28;19955;-56
2021/04/06 13:51:57;;;;;;;;;;;17.50;65.50;;;;;;5034998;28;19956;-54
2021/04/06 13:54:22;;;;;;;;;;;17.50;65.60;;;;;;5034845;28;19983;-56
2021/04/06 13:56:48;;;;;;;;;;;17.80;65.60;;;;;;5035154;28;20012;-55
2021/04/06 13:59:14;;;;;;;;;;;17.20;64.70;;;;;;5034812;28;20427;-56
2021/04/06 14:01:39;;;;;;;;;;;17.40;65.00;;;;;;5034609;28;19909;-56
2021/04/06 14:04:05;;;;;;;;;;;17.40;65.30;;;;;;5034642;28;20431;-56
2021/04/06 14:06:30;;;;;;;;;;;17.30;64.70;;;;;;5034823;28;19910;-56
2021/04/06 14:08:56;;;;;;;;;;;17.40;64.90;;;;;;5034076;28;19921;-61
2021/04/06 14:11:21;;;;;;;;;;;17.40;64.10;;;;;;5034712;28;19921;-55
2021/04/06 14:13:47;;;;;;;;;;;17.40;64.50;;;;;;5034614;28;19916;-56
2021/04/06 14:16:12;;;;;;;;;;;17.40;64.90;;;;;;5034703;28;19921;-56
2021/04/06 14:18:39;;;;;;;;;;;17.60;65.00;;;;;;5034781;28;20000;-55
2021/04/06 14:21:08;;;;;;;;;;;17.50;64.80;;;;;;5034734;28;19932;-56
2021/04/06 14:23:34;;;;;;;;;;;17.40;63.90;;;;;;5034388;28;20355;-56
2021/04/06 14:26:00;;;;;;;;;;;17.70;65.20;;;;;;5034582;28;19909;-57